createdAt,value
2022-11-16T00:01:23.285Z,61.30
2022-11-16T00:03:55.426Z,68.30
2022-11-16T00:06:26.391Z,65.50
2022-11-16T00:09:15.764Z,70.50
2022-11-16T00:11:46.699Z,89.00
2022-11-16T00:14:17.387Z,90.90
2022-11-16T00:16:47.822Z,82.40
2022-11-16T00:19:18.996Z,82.10
2022-11-16T00:21:50.149Z,81.30
2022-11-16T00:24:21.866Z,81.60
2022-11-16T00:26:54.173Z,79.50
2022-11-16T00:29:26.267Z,84.40
2022-11-16T00:31:56.864Z,88.10
2022-11-16T00:34:27.802Z,83.60
2022-11-16T00:36:58.839Z,85.60
2022-11-16T00:39:29.654Z,75.10
2022-11-16T00:42:00.472Z,86.90
2022-11-16T00:44:31.553Z,82.30
2022-11-16T00:47:02.290Z,85.10
2022-11-16T00:49:33.321Z,93.20
2022-11-16T00:52:03.954Z,97.50
2022-11-16T00:54:34.522Z,94.60
2022-11-16T00:57:05.214Z,94.70
2022-11-16T00:59:36.261Z,90.30
2022-11-16T01:02:07.300Z,91.20
2022-11-16T01:04:38.090Z,94.80
2022-11-16T01:07:09.313Z,90.80
2022-11-16T01:09:40.426Z,89.70
2022-11-16T01:12:13.307Z,96.10
2022-11-16T01:14:44.757Z,87.40
2022-11-16T01:17:15.818Z,90.20
2022-11-16T01:19:46.495Z,95.00
2022-11-16T01:22:17.263Z,91.40
2022-11-16T01:24:48.808Z,96.50
2022-11-16T01:27:19.446Z,103.10
2022-11-16T01:29:50.595Z,100.30
2022-11-16T01:32:21.934Z,100.40
2022-11-16T01:34:53.078Z,94.40
2022-11-16T01:37:35.072Z,92.70
2022-11-16T01:40:07.461Z,90.60
2022-11-16T01:42:38.284Z,92.80
2022-11-16T01:45:23.143Z,97.80
2022-11-16T01:47:55.985Z,98.50
2022-11-16T01:50:31.476Z,102.50
2022-11-16T01:53:03.279Z,96.20
2022-11-16T01:55:44.115Z,92.60
2022-11-16T01:58:40.966Z,97.60
2022-11-16T02:01:26.796Z,90.60
2022-11-16T02:03:59.201Z,91.90
2022-11-16T02:06:34.154Z,99.10
2022-11-16T02:09:39.562Z,96.40
2022-11-16T02:12:27.923Z,88.60
2022-11-16T02:15:04.496Z,90.50
2022-11-16T02:17:40.445Z,91.90
2022-11-16T02:20:28.281Z,98.60
2022-11-16T02:23:09.096Z,101.90
2022-11-16T02:25:47.358Z,104.50
2022-11-16T02:28:27.800Z,97.00
2022-11-16T02:31:00.201Z,94.10
2022-11-16T02:33:32.712Z,101.50
2022-11-16T02:36:04.330Z,93.90
2022-11-16T02:38:37.293Z,101.30
2022-11-16T02:41:10.600Z,99.80
2022-11-16T02:43:42.770Z,93.20
2022-11-16T02:46:15.963Z,96.70
2022-11-16T02:48:49.153Z,97.70
2022-11-16T02:51:19.959Z,95.40
2022-11-16T02:53:59.176Z,101.30
2022-11-16T02:56:30.671Z,101.10
2022-11-16T02:59:01.443Z,94.30
2022-11-16T03:01:36.334Z,101.90
2022-11-16T03:04:09.534Z,93.20
2022-11-16T03:06:41.672Z,94.40
2022-11-16T03:09:13.766Z,93.00
2022-11-16T03:12:03.043Z,94.80
2022-11-16T03:14:39.050Z,94.70
2022-11-16T03:17:11.613Z,97.20
2022-11-16T03:19:46.512Z,99.60
2022-11-16T03:22:19.059Z,99.70
2022-11-16T03:24:49.863Z,106.60
2022-11-16T03:27:25.997Z,99.70
2022-11-16T03:30:02.729Z,99.70
2022-11-16T03:32:37.124Z,97.70
2022-11-16T03:35:14.535Z,103.50
2022-11-16T03:37:46.807Z,99.10
2022-11-16T03:40:18.350Z,96.70
2022-11-16T03:42:50.726Z,96.00
2022-11-16T03:45:22.008Z,99.90
2022-11-16T03:47:53.217Z,95.30
2022-11-16T03:50:24.486Z,93.80
2022-11-16T03:52:54.967Z,91.60
2022-11-16T03:55:26.143Z,93.30
2022-11-16T03:57:56.866Z,88.70
2022-11-16T04:00:28.674Z,85.50
2022-11-16T04:02:59.355Z,76.30
2022-11-16T04:05:47.709Z,78.30
2022-11-16T04:08:36.779Z,78.40
2022-11-16T04:11:27.672Z,83.70
2022-11-16T04:14:17.126Z,81.10
2022-11-16T04:17:05.237Z,78.60
2022-11-16T04:19:57.968Z,71.40
2022-11-16T04:22:50.577Z,80.90
2022-11-16T04:25:28.272Z,76.60
2022-11-16T04:28:16.319Z,88.30
2022-11-16T04:31:17.151Z,92.70
2022-11-16T04:34:17.294Z,90.60
2022-11-16T04:37:09.303Z,93.20
2022-11-16T04:39:40.045Z,87.10
2022-11-16T04:42:17.533Z,86.20
2022-11-16T04:45:06.192Z,87.60
2022-11-16T04:47:53.401Z,82.40
2022-11-16T04:50:27.048Z,85.80
2022-11-16T04:52:58.251Z,82.30
2022-11-16T04:55:29.607Z,88.40
2022-11-16T04:58:00.747Z,83.90
2022-11-16T05:00:32.006Z,78.60
2022-11-16T05:03:04.157Z,86.00
2022-11-16T05:05:35.396Z,81.00
2022-11-16T05:08:06.231Z,84.40
2022-11-16T05:10:37.322Z,91.20
2022-11-16T05:13:09.040Z,82.60
2022-11-16T05:15:40.272Z,80.10
2022-11-16T05:18:11.150Z,86.20
2022-11-16T05:21:00.170Z,89.20
2022-11-16T05:23:49.440Z,89.40
2022-11-16T05:26:21.754Z,91.90
2022-11-16T05:28:52.856Z,95.20
2022-11-16T05:31:24.403Z,94.10
2022-11-16T05:33:55.339Z,99.40
2022-11-16T05:36:26.431Z,93.70
2022-11-16T05:38:57.324Z,91.20
2022-11-16T05:41:29.801Z,93.20
2022-11-16T05:44:00.631Z,91.70
2022-11-16T05:46:33.942Z,97.80
2022-11-16T05:49:08.143Z,97.50
2022-11-16T05:51:39.842Z,86.90
2022-11-16T05:54:12.879Z,88.20
2022-11-16T05:56:44.070Z,88.40
2022-11-16T05:59:16.588Z,89.20
2022-11-16T06:01:48.151Z,89.20
2022-11-16T06:04:24.902Z,88.10
2022-11-16T06:07:00.407Z,90.90
2022-11-16T06:09:34.184Z,85.10
2022-11-16T06:12:12.384Z,80.10
2022-11-16T06:14:43.013Z,83.90
2022-11-16T06:17:14.701Z,91.10
2022-11-16T06:19:45.406Z,85.80
2022-11-16T06:22:16.598Z,81.10
2022-11-16T06:24:48.097Z,93.20
2022-11-16T06:27:18.730Z,84.40
2022-11-16T06:29:49.893Z,82.50
2022-11-16T06:32:20.504Z,86.60
2022-11-16T06:35:07.845Z,81.70
2022-11-16T06:37:39.486Z,84.50
2022-11-16T06:40:11.787Z,85.60
2022-11-16T06:42:45.157Z,84.40
2022-11-16T06:45:16.857Z,81.00
2022-11-16T06:47:51.330Z,82.50
2022-11-16T06:50:22.202Z,81.20
2022-11-16T06:52:52.745Z,72.90
2022-11-16T06:55:23.744Z,74.40
2022-11-16T06:57:54.669Z,70.80
2022-11-16T07:00:25.262Z,63.90
2022-11-16T07:02:56.428Z,59.80
2022-11-16T07:05:27.272Z,68.40
2022-11-16T07:07:58.638Z,64.30
2022-11-16T07:10:29.582Z,61.10
2022-11-16T07:13:02.751Z,71.70
2022-11-16T07:15:33.864Z,69.50
2022-11-16T07:18:07.961Z,73.80
2022-11-16T07:20:40.180Z,74.20
2022-11-16T07:23:14.261Z,79.20
2022-11-16T07:25:48.293Z,79.10
2022-11-16T07:28:28.861Z,78.50
2022-11-16T07:31:03.504Z,79.30
2022-11-16T07:33:36.139Z,76.90
2022-11-16T07:36:19.691Z,77.10
2022-11-16T07:38:50.436Z,73.90
2022-11-16T07:41:22.078Z,73.10
2022-11-16T07:44:01.657Z,75.10
2022-11-16T07:46:50.999Z,68.30
2022-11-16T07:49:21.674Z,68.10
2022-11-16T07:51:56.776Z,68.00
2022-11-16T07:54:50.425Z,68.40
2022-11-16T07:57:21.397Z,63.10
2022-11-16T07:59:53.175Z,65.40
2022-11-16T08:02:24.060Z,69.00
2022-11-16T08:04:55.408Z,79.00
2022-11-16T08:07:29.375Z,77.70
2022-11-16T08:10:01.140Z,81.50
2022-11-16T08:12:32.738Z,85.30
2022-11-16T08:15:05.402Z,86.90
2022-11-16T08:17:36.647Z,79.00
2022-11-16T08:20:09.913Z,82.90
2022-11-16T08:22:40.471Z,75.60
2022-11-16T08:25:12.403Z,77.40
2022-11-16T08:27:46.059Z,63.30
2022-11-16T08:30:17.776Z,67.70
2022-11-16T08:32:49.445Z,59.20
2022-11-16T08:35:21.001Z,55.50
2022-11-16T08:40:57.997Z,42.30
2022-11-16T08:43:29.574Z,40.90
2022-11-16T08:46:00.592Z,42.30
2022-11-16T08:48:32.674Z,36.60
2022-11-16T08:51:22.519Z,36.40
2022-11-16T08:53:59.352Z,35.30
2022-11-16T08:56:30.836Z,33.00
2022-11-16T08:59:01.796Z,29.70
2022-11-16T09:01:33.222Z,28.70
2022-11-16T09:04:04.219Z,31.10
2022-11-16T09:06:37.126Z,31.90
2022-11-16T09:11:37.517Z,31.40
2022-11-16T09:14:07.936Z,29.30
2022-11-16T09:16:39.374Z,25.30
2022-11-16T09:19:10.967Z,23.10
2022-11-16T09:21:41.614Z,26.60
2022-11-16T09:24:13.024Z,26.50
2022-11-16T09:26:44.209Z,26.30
2022-11-16T09:29:15.453Z,28.50
2022-11-16T09:31:47.068Z,31.50
2022-11-16T09:34:17.608Z,36.00
2022-11-16T09:36:48.428Z,32.40
2022-11-16T09:39:30.675Z,28.70
2022-11-16T09:42:05.148Z,25.10
2022-11-16T09:44:50.239Z,28.70
2022-11-16T09:47:22.869Z,25.60
2022-11-16T09:49:59.795Z,22.20
2022-11-16T09:52:35.987Z,23.00
2022-11-16T09:55:18.663Z,21.30
2022-11-16T09:57:50.773Z,18.30
2022-11-16T10:00:23.027Z,18.60
2022-11-16T10:02:59.315Z,20.60
2022-11-16T10:05:32.435Z,18.40
2022-11-16T10:08:06.035Z,16.20
2022-11-16T10:13:11.241Z,15.20
2022-11-16T10:15:46.326Z,13.50
2022-11-16T10:18:26.441Z,14.50
2022-11-16T10:21:02.216Z,12.70
2022-11-16T10:23:38.839Z,14.70
2022-11-16T10:26:13.923Z,13.50
2022-11-16T10:28:52.380Z,17.20
2022-11-16T10:31:26.672Z,14.80
2022-11-16T10:33:58.835Z,13.20
2022-11-16T10:36:31.929Z,14.30
2022-11-16T10:39:03.221Z,11.80
2022-11-16T10:41:36.665Z,12.30
2022-11-16T10:44:13.745Z,12.00
2022-11-16T10:46:48.103Z,12.60
2022-11-16T10:49:22.644Z,17.30
2022-11-16T10:51:53.318Z,13.50
2022-11-16T10:54:24.301Z,14.10
2022-11-16T10:56:59.416Z,12.10
2022-11-16T10:59:40.602Z,13.00
2022-11-16T11:02:32.026Z,16.30
2022-11-16T11:05:08.313Z,11.90
2022-11-16T11:07:40.045Z,14.80
2022-11-16T11:10:29.032Z,11.60
2022-11-16T11:13:17.532Z,12.80
2022-11-16T11:15:51.465Z,11.40
2022-11-16T11:18:27.810Z,11.90
2022-11-16T11:21:09.095Z,15.60
2022-11-16T11:23:50.920Z,15.10
2022-11-16T11:26:36.651Z,16.20
2022-11-16T11:29:16.906Z,14.20
2022-11-16T11:31:49.623Z,15.90
2022-11-16T11:34:21.994Z,15.00
2022-11-16T11:36:55.052Z,16.90
2022-11-16T11:39:30.182Z,16.40
2022-11-16T11:42:05.612Z,16.80
2022-11-16T11:44:42.346Z,18.00
2022-11-16T11:50:16.740Z,15.30
2022-11-16T11:55:17.999Z,17.90
2022-11-16T11:57:50.570Z,18.80
2022-11-16T12:00:21.875Z,19.10
2022-11-16T12:03:08.300Z,21.70
2022-11-16T12:05:53.544Z,22.20
2022-11-16T12:08:31.896Z,25.30
2022-11-16T12:11:04.599Z,18.30
2022-11-16T12:13:50.073Z,17.10
2022-11-16T12:16:25.927Z,13.50
2022-11-16T12:19:10.121Z,10.70
2022-11-16T12:21:45.348Z,12.10
2022-11-16T12:24:23.438Z,11.80
2022-11-16T12:26:57.974Z,11.70
2022-11-16T12:29:37.931Z,10.00
2022-11-16T12:32:13.937Z,9.40
2022-11-16T12:34:54.958Z,8.00
2022-11-16T12:37:29.436Z,13.10
2022-11-16T12:40:11.489Z,9.40
2022-11-16T12:42:46.754Z,9.70
2022-11-16T12:45:32.953Z,7.60
2022-11-16T12:48:28.890Z,6.00
2022-11-16T12:51:01.414Z,10.70
2022-11-16T12:53:43.973Z,8.30
2022-11-16T12:56:19.437Z,5.90
2022-11-16T12:58:57.898Z,5.80
2022-11-16T13:01:34.851Z,6.50
2022-11-16T13:04:07.997Z,7.40
2022-11-16T13:06:41.178Z,6.80
2022-11-16T13:09:14.278Z,6.80
2022-11-16T13:14:16.365Z,8.40
2022-11-16T13:16:47.472Z,6.00
2022-11-16T13:19:18.811Z,6.60
2022-11-16T13:21:52.652Z,8.10
2022-11-16T13:24:26.214Z,5.20
2022-11-16T13:27:03.847Z,6.00
2022-11-16T13:29:37.679Z,6.30
2022-11-16T13:32:10.438Z,5.70
2022-11-16T13:34:42.639Z,5.70
2022-11-16T13:37:27.056Z,7.10
2022-11-16T13:40:21.593Z,5.90
2022-11-16T13:43:03.367Z,6.10
2022-11-16T13:45:35.093Z,6.00
2022-11-16T13:48:15.868Z,5.70
2022-11-16T13:50:50.245Z,5.80
2022-11-16T13:54:25.219Z,7.30
2022-11-16T13:56:28.557Z,6.60
2022-11-16T13:59:00.032Z,7.20
2022-11-16T14:01:50.454Z,7.40
2022-11-16T14:04:38.641Z,7.50
2022-11-16T14:07:28.620Z,6.10
2022-11-16T14:09:59.554Z,7.40
2022-11-16T14:12:59.337Z,6.30
2022-11-16T14:15:34.170Z,5.60
2022-11-16T14:18:28.045Z,7.00
2022-11-16T14:20:59.743Z,5.60
2022-11-16T14:23:37.844Z,6.60
2022-11-16T14:26:24.476Z,8.30
2022-11-16T14:29:05.177Z,6.70
2022-11-16T14:31:51.556Z,8.50
2022-11-16T14:34:23.490Z,6.00
2022-11-16T14:36:54.384Z,6.20
2022-11-16T14:39:30.479Z,6.20
2022-11-16T14:42:03.195Z,6.30
2022-11-16T14:44:36.857Z,6.50
2022-11-16T14:47:15.852Z,9.40
2022-11-16T14:49:47.910Z,6.10
2022-11-16T14:52:20.171Z,4.80
2022-11-16T14:54:53.161Z,6.10
2022-11-16T14:57:24.357Z,5.10
2022-11-16T15:00:08.865Z,7.90
2022-11-16T15:02:40.605Z,7.60
2022-11-16T15:05:15.530Z,8.20
2022-11-16T15:07:46.900Z,5.20
2022-11-16T15:10:18.752Z,5.80
2022-11-16T15:12:52.818Z,6.90
2022-11-16T15:15:25.290Z,7.20
2022-11-16T15:18:07.653Z,6.50
2022-11-16T15:20:40.120Z,8.10
2022-11-16T15:23:15.834Z,9.80
2022-11-16T15:25:47.351Z,11.20
2022-11-16T15:28:19.855Z,8.00
2022-11-16T15:30:51.591Z,8.40
2022-11-16T15:33:25.136Z,8.60
2022-11-16T15:38:27.458Z,9.00
2022-11-16T15:40:59.109Z,6.00
2022-11-16T15:43:33.066Z,8.80
2022-11-16T15:46:04.457Z,8.30
2022-11-16T15:48:39.081Z,7.00
2022-11-16T15:51:15.259Z,6.90
2022-11-16T15:53:47.165Z,8.20
2022-11-16T15:56:19.409Z,9.20
2022-11-16T15:58:50.863Z,8.70
2022-11-16T16:01:21.637Z,7.60
2022-11-16T16:03:55.767Z,9.80
2022-11-16T16:06:46.679Z,7.40
2022-11-16T16:09:22.538Z,10.90
2022-11-16T16:11:53.310Z,7.40
2022-11-16T16:14:25.470Z,11.10
2022-11-16T16:16:56.880Z,8.80
2022-11-16T16:19:32.285Z,9.90
2022-11-16T16:22:03.258Z,8.20
2022-11-16T16:24:39.116Z,9.20
2022-11-16T16:27:19.475Z,9.70
2022-11-16T16:29:50.927Z,9.70
2022-11-16T16:32:24.520Z,9.80
2022-11-16T16:34:56.349Z,7.90
2022-11-16T16:37:28.394Z,7.30
2022-11-16T16:39:59.473Z,6.10
2022-11-16T16:42:29.879Z,5.80
2022-11-16T16:45:02.311Z,4.60
2022-11-16T16:47:32.810Z,5.40
2022-11-16T16:50:04.148Z,5.70
2022-11-16T16:52:46.786Z,4.80
2022-11-16T16:55:20.067Z,6.60
2022-11-16T16:57:50.655Z,5.10
2022-11-16T17:00:21.879Z,4.90
2022-11-16T17:02:53.998Z,4.80
2022-11-16T17:05:26.886Z,5.20
2022-11-16T17:07:57.848Z,5.30
2022-11-16T17:10:28.836Z,5.80
2022-11-16T17:13:47.599Z,6.30
2022-11-16T17:17:30.956Z,7.30
2022-11-16T17:32:08.381Z,3.70
2022-11-16T17:34:41.500Z,5.00
2022-11-16T17:37:14.555Z,4.00
2022-11-16T17:39:45.201Z,6.00
2022-11-16T17:42:16.109Z,5.00
2022-11-16T17:44:46.409Z,5.30
2022-11-16T17:47:17.284Z,4.20
2022-11-16T17:49:47.819Z,6.00
2022-11-16T17:52:18.571Z,6.60
2022-11-16T17:54:48.980Z,6.10
2022-11-16T17:57:19.974Z,5.60
2022-11-16T17:59:50.542Z,4.80
2022-11-16T18:02:21.790Z,5.00
2022-11-16T18:04:52.529Z,5.90
2022-11-16T18:07:23.596Z,5.70
2022-11-16T18:09:54.199Z,4.60
2022-11-16T18:12:24.792Z,5.70
2022-11-16T18:15:26.534Z,6.20
2022-11-16T18:17:46.978Z,4.60
2022-11-16T18:20:17.711Z,7.90
2022-11-16T18:22:48.709Z,4.80
2022-11-16T18:25:19.176Z,4.40
2022-11-16T18:27:52.610Z,5.00
2022-11-16T18:30:23.914Z,5.90
2022-11-16T18:32:55.728Z,7.60
2022-11-16T18:35:26.272Z,6.30
2022-11-16T18:37:57.084Z,5.80
2022-11-16T18:40:27.551Z,5.40
2022-11-16T18:42:58.176Z,6.20
2022-11-16T18:45:28.824Z,6.20
2022-11-16T18:47:59.665Z,6.40
2022-11-16T18:50:30.224Z,6.20
2022-11-16T18:53:01.262Z,5.10
2022-11-16T18:55:31.755Z,8.00
2022-11-16T18:58:13.015Z,6.20
2022-11-16T19:00:53.723Z,5.60
2022-11-16T19:03:25.012Z,6.50
2022-11-16T19:05:58.940Z,6.80
2022-11-16T19:11:08.964Z,5.40
2022-11-16T19:13:39.968Z,6.70
2022-11-16T19:16:11.927Z,6.00
2022-11-16T19:18:43.186Z,7.90
2022-11-16T19:21:15.660Z,9.60
2022-11-16T19:23:48.149Z,7.40
2022-11-16T19:26:20.819Z,6.00
2022-11-16T19:28:52.640Z,8.10
2022-11-16T19:31:24.137Z,6.20
2022-11-16T19:33:59.867Z,4.40
2022-11-16T19:36:31.547Z,5.40
2022-11-16T19:39:02.566Z,5.10
2022-11-16T19:41:33.972Z,5.30
2022-11-16T19:44:05.317Z,5.50
2022-11-16T19:46:36.861Z,6.50
2022-11-16T19:49:08.789Z,5.60
2022-11-16T19:51:39.662Z,5.20
2022-11-16T19:54:14.012Z,5.20
2022-11-16T19:56:53.594Z,5.20
2022-11-16T19:59:26.361Z,6.30
2022-11-16T20:01:57.431Z,5.30
2022-11-16T20:04:32.933Z,6.10
2022-11-16T20:07:03.987Z,5.50
2022-11-16T20:09:35.311Z,5.30
2022-11-16T20:12:07.230Z,5.30
2022-11-16T20:14:38.261Z,6.70
2022-11-16T20:17:09.668Z,6.40
2022-11-16T20:19:42.138Z,7.40
2022-11-16T20:22:14.004Z,5.40
2022-11-16T20:24:45.871Z,5.70
2022-11-16T20:27:17.575Z,6.30
2022-11-16T20:29:48.512Z,4.70
2022-11-16T20:32:20.658Z,5.80
2022-11-16T20:34:52.118Z,5.80
2022-11-16T20:37:23.306Z,5.30
2022-11-16T20:39:57.360Z,5.20
2022-11-16T20:42:28.357Z,5.00
2022-11-16T20:44:59.268Z,5.00
2022-11-16T20:47:30.284Z,4.30
2022-11-16T20:50:01.142Z,5.90
2022-11-16T20:52:32.260Z,7.70
2022-11-16T20:55:02.808Z,5.40
2022-11-16T20:57:33.847Z,7.50
2022-11-16T21:00:05.233Z,5.00
2022-11-16T21:02:36.027Z,6.80
2022-11-16T21:05:07.579Z,5.60
2022-11-16T21:07:38.649Z,5.90
2022-11-16T21:10:19.798Z,5.00
2022-11-16T21:13:08.187Z,5.80
2022-11-16T21:15:39.257Z,5.30
2022-11-16T21:18:10.267Z,6.60
2022-11-16T21:20:40.819Z,5.50
2022-11-16T21:23:11.473Z,5.30
2022-11-16T21:25:42.042Z,5.30
2022-11-16T21:28:13.097Z,5.90
2022-11-16T21:30:44.032Z,6.10
2022-11-16T21:33:14.931Z,5.90
2022-11-16T21:35:46.498Z,4.70
2022-11-16T21:38:17.251Z,5.60
2022-11-16T21:40:48.097Z,6.00
2022-11-16T21:43:19.037Z,5.50
2022-11-16T21:45:50.067Z,7.90
2022-11-16T21:48:20.915Z,4.90
2022-11-16T21:51:00.134Z,4.80
2022-11-16T21:53:31.228Z,4.90
2022-11-16T21:56:02.087Z,5.40
2022-11-16T21:58:33.356Z,5.60
2022-11-16T22:01:03.930Z,5.50
2022-11-16T22:03:35.475Z,5.20
2022-11-16T22:06:25.357Z,5.20
2022-11-16T22:08:55.831Z,6.20
2022-11-16T22:11:26.549Z,5.70
2022-11-16T22:13:57.533Z,5.40
2022-11-16T22:16:28.156Z,5.50
2022-11-16T22:18:58.902Z,5.20
2022-11-16T22:21:29.550Z,5.70
2022-11-16T22:24:02.119Z,5.20
2022-11-16T22:26:32.858Z,5.60
2022-11-16T22:29:03.465Z,6.00
2022-11-16T22:31:34.035Z,4.90
2022-11-16T22:34:04.522Z,5.50
2022-11-16T22:36:35.103Z,4.30
2022-11-16T22:39:05.906Z,4.60
2022-11-16T22:41:36.661Z,5.10
2022-11-16T22:44:07.858Z,6.10
2022-11-16T22:46:38.469Z,5.30
2022-11-16T22:49:09.406Z,5.40
2022-11-16T22:51:39.858Z,5.10
2022-11-16T22:54:12.162Z,5.00
2022-11-16T22:56:42.807Z,4.80
2022-11-16T22:59:13.657Z,5.30
2022-11-16T23:01:44.227Z,4.70
2022-11-16T23:04:15.391Z,5.40
2022-11-16T23:06:45.900Z,5.20
2022-11-16T23:09:17.008Z,4.00
2022-11-16T23:12:04.988Z,4.40
2022-11-16T23:14:53.744Z,4.10
2022-11-16T23:17:24.260Z,3.60
2022-11-16T23:20:17.429Z,4.40
2022-11-16T23:23:06.585Z,3.70
2022-11-16T23:25:55.385Z,4.80
2022-11-16T23:28:25.924Z,4.60
2022-11-16T23:30:56.728Z,4.40
2022-11-16T23:33:41.978Z,5.20
2022-11-16T23:36:12.817Z,4.50
2022-11-16T23:38:43.438Z,4.70
2022-11-16T23:41:31.566Z,3.60
2022-11-16T23:44:02.008Z,4.10
2022-11-16T23:46:33.630Z,4.90
2022-11-16T23:49:04.191Z,4.30
2022-11-16T23:51:35.079Z,3.30
2022-11-16T23:54:07.491Z,3.90
2022-11-16T23:56:38.436Z,3.80
2022-11-16T23:59:08.873Z,3.60
